Terminal Aerodrome Forecast
Issued by NWS

Home | Current Version | Previous Version | Text Only | Print | Product List | Glossary Off
Versions: 1 2 3 4 5 6 7 8 9 10 11 12 13 14 15 16 17 18 19 20

000
FTUS43 KOAX 031736
TAFCDR
TAF
KCDR 031736Z 0318/0418 03010KT P6SM BKN060
     FM040100 34007KT P6SM SCT060
     FM040600 28006KT P6SM SKC=

USA.gov is the U.S. government's official web portal to all federal, state and local government web resources and services.